Latest Weather Observations for Toowoomba

IDQ60801

Issued at 2:02 pm EST Sunday 29 March 2015 (issued every 30 minutes, with the page automatically refreshed every 10 minutes)

About weather observations | Map of weather stations | Latest weather observations for QLD | Other Formats
Station Details ID: 041529 Name: TOOWOOMBA AIRPORT Lat: -27.54 Lon: 151.91 Height: 640.9 m
Data from the previous 72 hours. | See also: Recent months at Toowoomba
Date/Time
EST
Temp
°C
App
Temp
°C
Dew
Point
Rel
Hum
%
Delta-T
°C
Wind Press
QNH
hPa
Press
MSL
hPa
Rain
since 9 am
mm
Dir
 
Spd
km/h
Gust
km/h
Spd
kts
Gust
kts
29/02:00pm 24.6 23.5 14.4 53 6.2 ESE 13 22 7 12 1024.3 1021.2 0.0
29/01:30pm 24.7 24.0 15.3 56 5.8 ENE 13 22 7 12 1024.5 1021.4 0.0
29/01:00pm 24.0 23.0 15.5 59 5.2 E 15 28 8 15 1024.9 1021.8 0.0
29/12:30pm 24.2 23.0 17.0 64 4.5 E 19 28 10 15 1025.1 1022.0 0.0
29/12:00pm 23.8 22.2 16.1 62 4.8 ENE 19 28 10 15 1025.5 1022.3 0.0
29/11:30am 22.8 20.6 14.9 61 4.8 ENE 20 30 11 16 1025.9 1022.8 0.0
29/11:00am 22.9 20.6 15.7 64 4.4 ENE 22 30 12 16 1026.4 1023.3 0.0
29/10:30am 22.2 19.5 15.5 66 4.1 ENE 24 32 13 17 1026.5 1023.4 0.0
29/10:00am 22.0 19.0 15.8 68 3.8 ENE 26 32 14 17 1026.7 1023.6 0.0
29/09:30am 20.9 18.3 15.9 73 3.1 ENE 24 32 13 17 1026.9 1023.7 0.0
29/09:00am 20.1 17.9 15.9 77 2.6 ENE 22 30 12 16 1026.6 1023.5 0.0
29/08:30am 19.1 16.4 15.6 80 2.1 ENE 24 32 13 17 1026.4 1023.3 0.0
29/08:00am 19.3 16.8 16.2 82 1.9 E 24 33 13 18 1026.0 1022.9 0.0
29/07:30am 18.5 16.0 16.1 86 1.5 E 24 32 13 17 1025.5 1022.3 0.0
29/07:00am 17.4 14.6 16.3 93 0.7 E 26 33 14 18 1025.0 1021.9 0.0
29/06:30am 16.6 14.0 16.0 96 0.4 ESE 24 30 13 16 1024.6 1021.5 0.0
29/06:00am 16.2 14.2 15.6 96 0.4 E 20 26 11 14 1024.4 1021.3 0.0
29/05:30am 16.2 14.2 15.6 96 0.4 E 20 24 11 13 1024.0 1020.8 0.0
29/05:00am 16.3 13.6 15.5 95 0.5 E 24 30 13 16 1023.6 1020.4 0.0
29/04:30am 16.4 13.6 15.4 94 0.6 E 24 30 13 16 1023.2 1020.1 0.0
29/04:00am 16.4 14.0 15.3 93 0.7 E 22 28 12 15 1023.0 1019.9 0.0
29/03:30am 16.5 14.5 15.4 93 0.7 E 20 28 11 15 1023.0 1019.9 0.0
29/03:00am 16.4 14.3 15.1 92 0.8 E 20 24 11 13 1023.0 1019.9 0.0
29/02:30am 16.5 13.9 15.0 91 0.9 E 22 28 12 15 1023.0 1019.9 0.0
29/02:00am 16.6 14.0 14.8 89 1.1 E 22 26 12 14 1023.3 1020.2 0.0
29/01:30am 16.6 13.8 14.4 87 1.3 E 22 26 12 14 1023.4 1020.3 0.0
29/01:00am 16.9 13.8 14.4 85 1.5 E 24 30 13 16 1023.7 1020.5 0.0
29/12:30am 17.2 14.0 14.3 83 1.7 E 24 32 13 17 1024.1 1021.0 0.0
29/12:00am 17.2 13.2 14.1 82 1.8 E 28 35 15 19 1024.0 1020.8 0.0
 
Date/Time
EST
Temp
°C
App
Temp
°C
Dew
Point
Rel
Hum
%
Delta-T
°C
Wind Press
QNH
hPa
Press
MSL
hPa
Rain
since 9 am
mm
Dir
 
Spd
km/h
Gust
km/h
Spd
kts
Gust
kts
28/11:30pm 17.4 13.6 13.7 79 2.2 E 26 33 14 18 1023.9 1020.7 0.0
28/11:00pm 17.6 12.6 13.3 76 2.5 E 32 39 17 21 1023.8 1020.6 0.0
28/10:30pm 17.8 13.1 13.3 75 2.6 E 30 37 16 20 1024.1 1021.0 0.0
28/10:00pm 17.9 14.1 13.6 76 2.5 E 26 33 14 18 1024.4 1021.3 0.0
28/09:30pm 18.2 13.3 13.7 75 2.6 E 32 41 17 22 1024.3 1021.2 0.0
28/09:00pm 18.5 13.6 13.8 74 2.8 E 32 39 17 21 1024.3 1021.2 0.0
28/08:30pm 18.9 14.1 14.0 73 2.9 E 32 41 17 22 1024.2 1021.1 0.0
28/08:00pm 19.2 14.5 14.2 73 3.0 E 32 41 17 22 1024.1 1021.0 0.0
28/07:30pm 19.6 15.4 15.7 78 2.4 E 32 44 17 24 1023.6 1020.4 0.0
28/07:00pm 20.1 16.2 16.5 80 2.2 E 32 39 17 21 1022.8 1019.7 0.0
28/06:30pm 20.9 17.9 17.7 82 2.0 E 30 41 16 22 1022.4 1019.2 0.0
28/06:00pm 21.5 19.3 17.9 80 2.3 E 26 35 14 19 1022.2 1019.0 0.0
28/05:30pm 22.2 19.7 18.0 77 2.7 E 28 35 15 19 1022.0 1018.8 0.0
28/05:00pm 23.5 21.9 18.4 73 3.3 E 24 32 13 17 1021.7 1018.6 0.0
28/04:30pm 24.4 22.6 17.9 67 4.2 ESE 24 32 13 17 1021.5 1018.4 0.0
28/04:00pm 25.4 24.1 16.8 59 5.4 E 19 28 10 15 1021.4 1018.3 0.0
28/03:30pm 26.0 24.6 17.1 58 5.7 ENE 20 28 11 15 1021.4 1018.3 0.0
28/03:00pm 26.0 25.2 16.0 54 6.3 ENE 15 22 8 12 1021.5 1018.4 0.0
28/02:30pm 25.9 24.9 16.7 57 5.8 E 17 22 9 12 1021.5 1018.4 0.0
28/02:00pm 25.2 25.4 18.6 67 4.3 SE 15 20 8 11 1022.2 1019.0 0.0
28/01:30pm 24.2 23.4 16.2 61 5.0 SE 15 20 8 11 1022.4 1019.2 0.0
28/01:00pm 24.5 23.7 16.0 59 5.3 E 15 22 8 12 1022.8 1019.7 0.0
28/12:30pm 25.1 25.1 17.3 62 5.0 E 13 22 7 12 1023.1 1020.0 0.0
28/12:00pm 24.9 24.8 16.9 61 5.1 ESE 13 19 7 10 1023.7 1020.5 0.0
28/11:30am 24.4 23.9 16.9 63 4.8 ESE 15 24 8 13 1024.0 1020.8 0.0
28/11:00am 23.7 23.2 16.0 62 4.8 E 13 20 7 11 1024.5 1021.4 0.0
28/10:30am 23.2 23.0 16.7 67 4.1 E 13 24 7 13 1024.8 1021.7 0.0
28/10:00am 22.7 22.4 17.4 72 3.4 ENE 15 22 8 12 1024.9 1021.8 0.0
28/09:30am 22.2 21.7 17.8 76 2.8 ENE 17 24 9 13 1024.9 1021.8 0.0
28/09:11am 21.6 21.0 17.6 78 2.5 ENE 17 22 9 12 1024.7 1021.6 0.0
28/09:00am 21.3 20.7 18.5 84 1.8 E 19 24 10 13 1024.7 1021.6 0.0
28/08:30am 20.5 20.2 18.3 87 1.4 E 17 22 9 12 1024.4 1021.3 0.0
28/08:00am 20.1 19.9 18.4 90 1.1 E 17 20 9 11 1024.2 1021.1 0.0
28/07:30am 19.1 19.0 17.9 93 0.8 E 15 19 8 10 1023.9 1020.7 0.0
28/07:00am 18.9 18.9 18.1 95 0.5 E 15 19 8 10 1023.4 1020.3 0.0
28/06:42am 18.8 19.3 18.3 97 0.3 E 13 17 7 9 1023.1 1020.0 0.0
28/06:30am 18.5 18.8 17.8 96 0.4 ENE 13 17 7 9 1022.9 1019.8 0.0
28/06:00am 18.6 19.0 18.1 97 0.3 ENE 13 17 7 9 1022.7 1019.6 0.0
28/05:41am 18.6 19.0 18.1 97 0.3 ENE 13 17 7 9 1022.4 1019.2 0.0
28/05:37am 18.6 19.0 18.1 97 0.3 ENE 13 17 7 9 1022.4 1019.2 0.0
28/05:30am 18.6 19.4 18.1 97 0.3 ENE 11 17 6 9 1022.4 1019.2 0.0
28/05:14am 18.5 19.2 18.0 97 0.3 ENE 11 15 6 8 1022.3 1019.1 0.0
28/05:12am 18.5 19.2 18.0 97 0.3 ENE 11 15 6 8 1022.3 1019.1 0.0
28/05:00am 18.2 18.8 17.6 96 0.4 ENE 11 15 6 8 1022.2 1019.0 0.0
28/04:55am 18.2 18.8 17.6 96 0.4 E 11 15 6 8 1022.2 1019.0 0.0
28/04:30am 18.0 18.5 17.4 96 0.4 ENE 11 15 6 8 1022.0 1018.8 0.0
28/04:12am 18.1 18.6 17.5 96 0.4 ENE 11 15 6 8 1021.7 1018.6 0.0
28/04:00am 18.4 19.0 17.8 96 0.4 ENE 11 15 6 8 1021.7 1018.6 0.0
28/03:36am 18.3 18.8 17.5 95 0.5 E 11 13 6 7 1021.6 1018.5 0.0
28/03:30am 18.4 19.0 17.6 95 0.5 E 11 15 6 8 1021.6 1018.5 0.0
28/03:01am 18.3 18.9 17.7 96 0.4 ENE 11 13 6 7 1021.6 1018.5 0.0
28/03:00am 18.3 18.9 17.7 96 0.4 ENE 11 13 6 7 1021.6 1018.5 0.0
28/02:30am 18.5 19.1 17.8 96 0.4 ENE 11 15 6 8 1021.7 1018.6 0.0
28/02:25am 18.6 19.3 17.9 96 0.4 ENE 11 17 6 9 1021.7 1018.6 0.0
28/02:04am 18.5 18.7 17.7 95 0.5 ENE 13 17 7 9 1021.7 1018.6 0.0
28/02:00am 18.5 18.3 17.7 95 0.5 ENE 15 17 8 9 1021.6 1018.5 0.0
28/01:48am 18.6 18.9 17.9 96 0.4 ENE 13 17 7 9 1021.7 1018.6 0.0
28/01:30am 18.5 18.7 17.7 95 0.5 ENE 13 17 7 9 1021.7 1018.6 0.0
28/01:00am 18.6 18.9 17.8 95 0.5 E 13 15 7 8 1022.1 1018.9 0.0
28/12:30am 18.5 18.6 17.5 94 0.6 E 13 17 7 9 1022.3 1019.1 0.0
28/12:00am 18.8 18.7 17.8 94 0.6 E 15 19 8 10 1022.4 1019.2 0.0
 
Date/Time
EST
Temp
°C
App
Temp
°C
Dew
Point
Rel
Hum
%
Delta-T
°C
Wind Press
QNH
hPa
Press
MSL
hPa
Rain
since 9 am
mm
Dir
 
Spd
km/h
Gust
km/h
Spd
kts
Gust
kts
27/11:30pm 18.9 18.8 17.9 94 0.6 ESE 15 19 8 10 1022.6 1019.4 0.0
27/11:00pm 18.9 18.8 17.9 94 0.6 ESE 15 20 8 11 1022.8 1019.7 0.0
27/10:30pm 19.0 18.5 17.7 92 0.8 ESE 17 20 9 11 1023.0 1019.9 0.0
27/10:00pm 19.2 18.6 17.5 90 1.1 ESE 17 20 9 11 1023.3 1020.2 0.0
27/09:30pm 19.8 19.5 17.4 86 1.5 ESE 15 20 8 11 1023.3 1020.2 0.0
27/09:00pm 21.1 17.8 4.6 34 8.3 SE 11 17 6 9 1023.4 1020.3 0.0
27/08:30pm 21.1 17.8 4.6 34 8.3 SSW 11 15 6 8 1023.1 1020.0 0.0
27/08:00pm 21.3 17.3 4.8 34 8.3 SW 15 19 8 10 1022.8 1019.7 0.0
27/07:30pm 21.4 18.0 6.1 37 7.9 WSW 13 17 7 9 1022.7 1019.6 0.0
27/07:00pm 22.1 19.8 5.9 35 8.4 WNW 7 9 4 5 1022.3 1019.1 0.0
27/06:30pm 22.3 19.9 6.9 37 8.2 W 9 13 5 7 1021.7 1018.6 0.0
27/06:00pm 23.2 20.8 6.9 35 8.7 WSW 9 15 5 8 1021.4 1018.3 0.0
27/05:30pm 24.3 20.8 7.0 33 9.3 WSW 15 20 8 11 1021.1 1017.9 0.0
27/05:00pm 26.0 21.7 7.1 30 10.2 WSW 19 28 10 15 1020.8 1017.6 0.0
27/04:30pm 26.3 22.1 7.4 30 10.3 WSW 19 22 10 12 1020.7 1017.5 0.0
27/04:00pm 26.0 21.8 7.6 31 10.1 WSW 19 24 10 13 1020.6 1017.4 0.0
27/03:30pm 26.2 22.0 8.2 32 10.0 WSW 20 30 11 16 1020.5 1017.3 0.0
27/03:00pm 27.4 23.8 8.3 30 10.6 WSW 17 24 9 13 1020.4 1017.2 0.0
27/02:30pm 26.9 23.4 8.8 32 10.2 W 17 24 9 13 1020.6 1017.4 0.0
27/02:00pm 27.3 23.6 10.1 34 9.9 WSW 20 26 11 14 1020.8 1017.6 0.0
27/01:30pm 27.4 23.8 8.3 30 10.7 WSW 17 24 9 13 1021.2 1018.0 0.0
27/01:00pm 26.8 22.7 7.8 30 10.5 WSW 19 26 10 14 1021.5 1018.4 0.0
27/12:30pm 27.0 23.4 8.4 31 10.4 WSW 17 26 9 14 1021.9 1018.7 0.0
27/12:00pm 26.8 22.9 7.3 29 10.6 WSW 17 26 9 14 1022.3 1019.1 0.0
27/11:30am 26.6 23.1 8.6 32 10.1 WSW 17 22 9 12 1022.8 1019.7 0.0
27/11:00am 25.8 21.7 6.4 29 10.4 W 17 26 9 14 1023.1 1020.0 0.0
27/10:30am 25.2 20.8 4.9 27 10.6 WSW 17 24 9 13 1023.6 1020.4 0.0
27/10:00am 24.5 20.1 4.8 28 10.1 WSW 17 24 9 13 1023.7 1020.5 0.0
27/09:30am 23.7 21.2 9.7 41 7.9 WSW 13 20 7 11 1023.8 1020.6 0.0
27/09:00am 22.8 20.8 8.5 40 7.8 WSW 9 17 5 9 1023.4 1020.3 6.0
27/08:30am 21.6 18.8 7.1 39 7.7 W 11 15 6 8 1023.4 1020.3 6.0
27/08:00am 20.8 19.0 9.4 48 6.2 W 9 13 5 7 1023.2 1020.1 6.0
27/07:30am 20.2 18.9 7.6 44 6.7 WSW 4 7 2 4 1022.7 1019.6 6.0
27/07:00am 18.3 16.8 8.6 53 5.2 SW 6 7 3 4 1022.4 1019.2 6.0
27/06:30am 16.9 14.2 7.3 53 5.0 SSW 11 15 6 8 1022.1 1018.9 6.0
27/06:00am 17.1 15.1 6.9 51 5.2 WSW 7 11 4 6 1021.7 1018.6 6.0
27/05:30am 17.0 14.7 7.6 54 4.9 SW 9 11 5 6 1021.4 1018.3 6.0
27/05:00am 17.4 15.3 8.3 55 4.8 WNW 9 11 5 6 1021.2 1018.0 6.0
27/04:30am 18.1 18.1 9.7 58 4.6 CALM 0 0 0 0 1020.9 1017.7 6.0
27/04:00am 18.0 15.8 9.4 57 4.6 SSW 11 15 6 8 1020.5 1017.3 6.0
27/03:30am 17.9 16.1 10.8 63 3.9 SW 11 13 6 7 1020.6 1017.4 6.0
27/03:00am 18.8 19.0 14.7 77 2.4 WSW 7 9 4 5 1020.8 1017.6 6.0
27/02:30am 18.8 20.0 16.8 88 1.2 W 6 7 3 4 1021.0 1017.8 6.0
27/02:00am 19.3 21.2 17.6 90 1.1 W 4 7 2 4 1021.2 1018.0 5.8
27/01:30am 19.3 20.2 16.7 85 1.6 WNW 7 9 4 5 1021.3 1018.2 5.8
27/01:00am 19.8 20.6 17.4 86 1.5 WNW 9 11 5 6 1021.7 1018.6 5.8
27/12:30am 19.9 22.7 17.9 88 1.3 CALM 0 0 0 0 1021.9 1018.7 5.8
27/12:00am 20.5 22.1 18.3 87 1.4 NNW 7 9 4 5 1022.1 1018.9 5.8
 
Date/Time
EST
Temp
°C
App
Temp
°C
Dew
Point
Rel
Hum
%
Delta-T
°C
Wind Press
QNH
hPa
Press
MSL
hPa
Rain
since 9 am
mm
Dir
 
Spd
km/h
Gust
km/h
Spd
kts
Gust
kts
26/11:30pm 20.5 21.6 17.9 85 1.7 NNW 9 9 5 5 1022.3 1019.1 5.8
26/11:00pm 21.0 22.8 18.4 85 1.7 WNW 6 6 3 3 1022.0 1018.8 5.8
26/10:30pm 21.6 24.7 18.6 83 1.9 CALM 0 0 0 0 1022.1 1018.9 5.8
26/10:00pm 21.8 25.1 19.2 85 1.7 CALM 0 0 0 0 1022.3 1019.1 5.8
26/09:30pm 21.8 25.1 19.0 84 1.8 CALM 0 0 0 0 1022.4 1019.2 5.8
26/09:00pm 21.8 25.2 19.4 86 1.6 CALM 0 0 0 0 1022.3 1019.1 5.8
26/08:30pm 21.7 23.9 19.1 85 1.7 NE 6 7 3 4 1022.6 1019.4 5.8
26/08:00pm 21.8 23.5 19.4 86 1.6 NE 9 11 5 6 1022.5 1019.3 5.8
26/07:30pm 22.4 24.9 19.9 86 1.6 NE 6 9 3 5 1021.7 1018.6 5.8
26/07:00pm 22.3 24.7 19.7 85 1.7 SW 6 7 3 4 1020.6 1017.4 5.8
26/06:30pm 22.5 24.7 19.7 84 1.8 NNW 7 11 4 6 1020.6 1017.4 5.8
26/06:00pm 23.0 25.3 19.8 82 2.1 NNW 7 13 4 7 1020.7 1017.5 5.8
26/05:30pm 23.0 24.3 20.1 84 1.9 N 13 17 7 9 1020.7 1017.5 5.8
26/05:00pm 23.5 25.3 20.4 83 2.1 NNW 11 15 6 8 1019.9 1016.8 5.8
26/04:30pm 23.5 26.1 20.4 83 2.1 W 7 11 4 6 1019.5 1016.3 5.8
26/04:00pm 23.4 26.1 20.7 85 1.8 SE 7 13 4 7 1019.4 1016.2 5.8
26/03:31pm 22.6 23.5 19.2 81 2.2 W 13 19 7 10 1019.2 1016.0 5.8
26/03:30pm 22.6 23.6 19.4 82 2.1 WSW 13 19 7 10 1019.2 1016.0 5.8
26/03:00pm 22.8 24.0 19.8 83 2.0 W 13 28 7 15 1019.6 1016.4 3.0
26/02:51pm 23.3 23.9 20.2 83 2.1 WSW 17 26 9 14 1019.5 1016.3 1.0
26/02:30pm 25.4 26.0 21.1 77 2.9 SE 19 26 10 14 1019.2 1016.0 0.0

Other Formats:

Comma delimited format used in spreadsheet applications
http://www.bom.gov.au/fwo/IDQ60801/IDQ60801.95551.axf

JavaScript Object Notation format (JSON) in row-major order
http://www.bom.gov.au/fwo/IDQ60801/IDQ60801.95551.json